createdAt,value
2018-07-22T00:00:43.882Z,94654.00
2018-07-22T00:03:15.117Z,94653.00
2018-07-22T00:05:46.303Z,94647.00
2018-07-22T00:08:17.400Z,94650.00
2018-07-22T00:10:48.293Z,94646.00
2018-07-22T00:13:19.384Z,94643.00
2018-07-22T00:15:50.646Z,94647.00
2018-07-22T00:18:21.693Z,94644.00
2018-07-22T00:30:37.274Z,94647.00
2018-07-22T00:33:08.294Z,94648.00
2018-07-22T00:35:39.466Z,94648.00
2018-07-22T00:38:10.673Z,94649.00
2018-07-22T00:40:41.702Z,94646.00
2018-07-22T00:43:12.613Z,94646.00
2018-07-22T00:45:46.913Z,94642.00
2018-07-22T00:48:17.970Z,94641.00
2018-07-22T00:50:49.153Z,94641.00
2018-07-22T00:53:20.020Z,94637.00
2018-07-22T00:55:50.482Z,94636.00
2018-07-22T00:58:21.253Z,94630.00
2018-07-22T01:16:35.976Z,94646.00
2018-07-22T01:19:07.368Z,94644.00
2018-07-22T01:21:38.198Z,94652.00
2018-07-22T01:24:09.092Z,94645.00
2018-07-22T01:26:40.067Z,94642.00
2018-07-22T01:29:11.032Z,94640.00
2018-07-22T01:31:42.028Z,94641.00
2018-07-22T01:34:13.183Z,94638.00
2018-07-22T01:36:44.297Z,94637.00
2018-07-22T01:39:15.221Z,94636.00
2018-07-22T01:41:46.118Z,94631.00
2018-07-22T01:44:17.118Z,94624.00
2018-07-22T01:46:47.997Z,94623.00
2018-07-22T01:49:18.769Z,94620.00
2018-07-22T01:51:49.724Z,94621.00
2018-07-22T01:54:20.678Z,94615.00
2018-07-22T01:56:51.788Z,94619.00
2018-07-22T01:59:22.698Z,94621.00
2018-07-22T02:01:53.738Z,94614.00
2018-07-22T02:04:24.662Z,94614.00
2018-07-22T02:06:55.575Z,94615.00
2018-07-22T02:09:26.558Z,94615.00
2018-07-22T02:11:57.544Z,94615.00
2018-07-22T02:14:28.414Z,94613.00
2018-07-22T02:16:59.244Z,94614.00
2018-07-22T02:19:30.095Z,94616.00
2018-07-22T02:22:01.185Z,94617.00
2018-07-22T02:24:32.173Z,94620.00
2018-07-22T02:27:03.404Z,94625.00
2018-07-22T02:29:34.270Z,94615.00
2018-07-22T02:32:05.314Z,94618.00
2018-07-22T02:34:36.381Z,94620.00
2018-07-22T02:37:07.351Z,94622.00
2018-07-22T02:39:38.560Z,94623.00
2018-07-22T02:42:09.414Z,94622.00
2018-07-22T02:44:40.500Z,94621.00
2018-07-22T02:47:11.374Z,94624.00
2018-07-22T02:49:42.336Z,94620.00
2018-07-22T02:52:13.327Z,94620.00
2018-07-22T02:54:44.294Z,94618.00
2018-07-22T02:57:15.331Z,94618.00
2018-07-22T02:59:46.344Z,94618.00
2018-07-22T03:02:17.347Z,94617.00
2018-07-22T03:04:48.478Z,94621.00
2018-07-22T03:07:19.664Z,94624.00
2018-07-22T03:09:50.905Z,94631.00
2018-07-22T03:12:21.856Z,94629.00
2018-07-22T03:14:52.989Z,94631.00
2018-07-22T03:17:24.042Z,94630.00
2018-07-22T03:19:55.081Z,94625.00
2018-07-22T03:22:26.041Z,94619.00
2018-07-22T03:24:57.120Z,94623.00
2018-07-22T03:27:28.105Z,94619.00
2018-07-22T03:29:59.361Z,94623.00
2018-07-22T03:32:30.269Z,94620.00
2018-07-22T03:35:01.214Z,94617.00
2018-07-22T03:37:32.337Z,94618.00
2018-07-22T03:40:03.463Z,94613.00
2018-07-22T03:42:34.668Z,94604.00
2018-07-22T03:45:05.798Z,94602.00
2018-07-22T03:47:36.898Z,94597.00
2018-07-22T03:50:08.248Z,94602.00
2018-07-22T03:52:39.314Z,94608.00
2018-07-22T03:55:10.488Z,94611.00
2018-07-22T03:57:41.686Z,94610.00
2018-07-22T04:00:35.361Z,94618.00
2018-07-22T04:03:05.917Z,94614.00
2018-07-22T04:05:36.868Z,94609.00
2018-07-22T04:08:07.926Z,94614.00
2018-07-22T04:10:39.012Z,94609.00
2018-07-22T04:13:10.680Z,94613.00
2018-07-22T04:15:42.007Z,94612.00
2018-07-22T04:18:13.125Z,94615.00
2018-07-22T04:20:44.233Z,94606.00
2018-07-22T04:23:15.275Z,94613.00
2018-07-22T04:25:46.319Z,94609.00
2018-07-22T04:28:17.534Z,94613.00
2018-07-22T04:30:49.713Z,94610.00
2018-07-22T04:33:20.850Z,94613.00
2018-07-22T04:35:52.709Z,94608.00
2018-07-22T04:38:24.310Z,94597.00
2018-07-22T04:40:55.448Z,94603.00
2018-07-22T04:43:26.445Z,94592.00
2018-07-22T04:45:57.566Z,94592.00
2018-07-22T04:48:29.650Z,94594.00
2018-07-22T04:51:00.635Z,94589.00
2018-07-22T04:53:31.806Z,94584.00
2018-07-22T04:56:03.321Z,94584.00
2018-07-22T04:58:34.421Z,94579.00
2018-07-22T05:07:14.432Z,94586.00
2018-07-22T05:09:45.576Z,94584.00
2018-07-22T05:12:16.680Z,94584.00
2018-07-22T05:14:47.737Z,94587.00
2018-07-22T05:17:18.798Z,94597.00
2018-07-22T05:19:49.891Z,94601.00
2018-07-22T05:22:21.046Z,94597.00
2018-07-22T05:24:52.307Z,94597.00
2018-07-22T05:27:23.532Z,94594.00
2018-07-22T05:29:58.072Z,94593.00
2018-07-22T05:32:29.559Z,94595.00
2018-07-22T05:35:00.946Z,94592.00
2018-07-22T05:37:32.254Z,94591.00
2018-07-22T05:40:03.466Z,94589.00
2018-07-22T05:42:34.684Z,94592.00
2018-07-22T05:45:05.638Z,94588.00
2018-07-22T05:47:36.863Z,94588.00
2018-07-22T05:50:08.368Z,94595.00
2018-07-22T05:52:39.450Z,94593.00
2018-07-22T05:55:11.002Z,94595.00
2018-07-22T05:57:42.522Z,94587.00
2018-07-22T06:00:13.918Z,94586.00
2018-07-22T06:02:46.001Z,94589.00
2018-07-22T06:05:16.910Z,94586.00
2018-07-22T06:07:47.993Z,94587.00
2018-07-22T06:10:18.992Z,94583.00
2018-07-22T06:12:50.060Z,94583.00
2018-07-22T06:15:21.205Z,94578.00
2018-07-22T06:21:18.115Z,94577.00
2018-07-22T06:23:49.254Z,94571.00
2018-07-22T06:26:20.393Z,94567.00
2018-07-22T06:28:51.394Z,94561.00
2018-07-22T06:31:22.313Z,94556.00
2018-07-22T06:33:53.513Z,94563.00
2018-07-22T06:36:24.709Z,94557.00
2018-07-22T06:38:55.885Z,94557.00
2018-07-22T06:41:27.210Z,94551.00
2018-07-22T06:43:58.438Z,94555.00
2018-07-22T06:46:29.829Z,94551.00
2018-07-22T06:49:02.339Z,94556.00
2018-07-22T06:51:33.803Z,94555.00
2018-07-22T06:54:05.186Z,94542.00
2018-07-22T06:56:36.643Z,94544.00
2018-07-22T06:59:08.122Z,94537.00
2018-07-22T07:01:40.077Z,94536.00
2018-07-22T07:04:11.516Z,94531.00
2018-07-22T07:06:42.520Z,94535.00
2018-07-22T07:27:59.357Z,94519.00
2018-07-22T07:30:31.272Z,94521.00
2018-07-22T07:33:02.264Z,94523.00
2018-07-22T07:35:33.362Z,94518.00
2018-07-22T07:38:04.512Z,94521.00
2018-07-22T07:40:35.816Z,94520.00
2018-07-22T07:43:06.898Z,94518.00
2018-07-22T07:45:38.173Z,94517.00
2018-07-22T07:48:09.473Z,94514.00
2018-07-22T07:50:40.930Z,94508.00
2018-07-22T07:53:12.112Z,94509.00
2018-07-22T07:55:43.396Z,94504.00
2018-07-22T07:58:14.550Z,94498.00
2018-07-22T08:00:45.554Z,94494.00
2018-07-22T08:03:16.895Z,94485.00
2018-07-22T08:05:47.938Z,94480.00
2018-07-22T08:08:18.945Z,94484.00
2018-07-22T08:10:50.044Z,94474.00
2018-07-22T08:13:21.033Z,94475.00
2018-07-22T08:15:52.196Z,94474.00
2018-07-22T08:18:23.346Z,94476.00
2018-07-22T08:20:54.436Z,94484.00
2018-07-22T08:23:25.622Z,94481.00
2018-07-22T08:25:57.172Z,94478.00
2018-07-22T08:28:50.601Z,94476.00
2018-07-22T08:31:22.166Z,94466.00
2018-07-22T08:33:53.442Z,94465.00
2018-07-22T08:36:25.104Z,94464.00
2018-07-22T08:38:56.472Z,94460.00
2018-07-22T08:41:27.959Z,94451.00
2018-07-22T08:43:59.371Z,94444.00
2018-07-22T08:46:30.694Z,94436.00
2018-07-22T08:52:34.563Z,94429.00
2018-07-22T08:55:06.502Z,94427.00
2018-07-22T08:57:37.798Z,94425.00
2018-07-22T09:00:09.218Z,94428.00
2018-07-22T09:02:40.632Z,94420.00
2018-07-22T09:05:11.917Z,94415.00
2018-07-22T09:07:43.676Z,94407.00
2018-07-22T09:10:15.029Z,94409.00
2018-07-22T09:12:46.401Z,94399.00
2018-07-22T09:15:17.637Z,94399.00
2018-07-22T09:17:48.578Z,94397.00
2018-07-22T09:20:20.008Z,94398.00
2018-07-22T09:22:51.437Z,94394.00
2018-07-22T09:25:22.906Z,94393.00
2018-07-22T09:27:53.995Z,94389.00
2018-07-22T09:30:25.324Z,94379.00
2018-07-22T09:32:56.860Z,94379.00
2018-07-22T09:35:28.163Z,94379.00
2018-07-22T09:37:59.450Z,94374.00
2018-07-22T09:40:30.401Z,94375.00
2018-07-22T09:43:01.698Z,94374.00
2018-07-22T09:45:32.935Z,94368.00
2018-07-22T09:48:04.284Z,94361.00
2018-07-22T09:50:35.640Z,94363.00
2018-07-22T09:53:07.039Z,94358.00
2018-07-22T09:55:38.358Z,94358.00
2018-07-22T09:58:10.321Z,94347.00
2018-07-22T10:00:46.647Z,94347.00
2018-07-22T10:03:17.798Z,94346.00
2018-07-22T10:05:49.518Z,94344.00
2018-07-22T10:08:21.042Z,94343.00
2018-07-22T10:10:52.417Z,94340.00
2018-07-22T10:13:24.009Z,94343.00
2018-07-22T10:15:55.146Z,94345.00
2018-07-22T10:18:26.500Z,94339.00
2018-07-22T10:20:57.865Z,94330.00
2018-07-22T10:23:29.083Z,94330.00
2018-07-22T10:26:00.309Z,94331.00
2018-07-22T10:28:31.864Z,94325.00
2018-07-22T10:31:04.110Z,94322.00
2018-07-22T10:33:35.423Z,94312.00
2018-07-22T10:36:08.155Z,94308.00
2018-07-22T10:38:39.703Z,94301.00
2018-07-22T10:41:11.296Z,94304.00
2018-07-22T10:43:42.895Z,94301.00
2018-07-22T10:46:14.213Z,94296.00
2018-07-22T10:48:45.951Z,94288.00
2018-07-22T10:51:18.270Z,94285.00
2018-07-22T10:53:49.120Z,94280.00
2018-07-22T10:56:20.259Z,94277.00
2018-07-22T10:58:52.040Z,94276.00
2018-07-22T11:01:23.299Z,94271.00
2018-07-22T11:03:54.612Z,94271.00
2018-07-22T11:06:26.000Z,94258.00
2018-07-22T11:08:57.632Z,94256.00
2018-07-22T11:11:28.993Z,94257.00
2018-07-22T11:14:00.620Z,94254.00
2018-07-22T11:16:31.887Z,94248.00
2018-07-22T11:19:03.530Z,94239.00
2018-07-22T11:21:34.850Z,94245.00
2018-07-22T11:24:06.879Z,94233.00
2018-07-22T11:26:38.873Z,94244.00
2018-07-22T11:29:10.907Z,94239.00
2018-07-22T11:31:42.116Z,94231.00
2018-07-22T11:34:13.801Z,94222.00
2018-07-22T11:36:45.542Z,94221.00
2018-07-22T11:39:17.583Z,94222.00
2018-07-22T11:41:50.176Z,94218.00
2018-07-22T11:44:21.360Z,94208.00
2018-07-22T11:46:52.604Z,94206.00
2018-07-22T11:49:23.339Z,94204.00
2018-07-22T11:51:54.693Z,94209.00
2018-07-22T11:54:25.964Z,94208.00
2018-07-22T11:56:57.317Z,94199.00
2018-07-22T11:59:28.885Z,94199.00
2018-07-22T12:02:00.183Z,94200.00
2018-07-22T12:04:31.334Z,94199.00
2018-07-22T12:07:02.804Z,94194.00
2018-07-22T12:09:34.242Z,94200.00
2018-07-22T12:12:05.342Z,94193.00
2018-07-22T12:14:36.153Z,94196.00
2018-07-22T12:17:07.296Z,94191.00
2018-07-22T12:19:38.362Z,94190.00
2018-07-22T12:22:08.886Z,94191.00
2018-07-22T12:24:39.998Z,94185.00
2018-07-22T12:27:11.324Z,94174.00
2018-07-22T12:29:42.637Z,94171.00
2018-07-22T12:32:14.080Z,94179.00
2018-07-22T12:34:45.556Z,94177.00
2018-07-22T12:37:17.095Z,94165.00
2018-07-22T12:39:48.449Z,94165.00
2018-07-22T12:42:19.207Z,94163.00
2018-07-22T12:44:51.103Z,94152.00
2018-07-22T12:47:22.309Z,94154.00
2018-07-22T12:49:53.733Z,94149.00
2018-07-22T12:52:25.439Z,94153.00
2018-07-22T12:54:59.009Z,94161.00
2018-07-22T12:57:30.679Z,94173.00
2018-07-22T13:00:02.596Z,94175.00
2018-07-22T13:02:34.289Z,94174.00
2018-07-22T13:05:06.148Z,94172.00
2018-07-22T13:07:39.339Z,94189.00
2018-07-22T13:10:10.826Z,94217.00
2018-07-22T13:12:42.262Z,94212.00
2018-07-22T13:15:14.263Z,94213.00
2018-07-22T13:17:45.663Z,94205.00
2018-07-22T13:20:17.197Z,94208.00
2018-07-22T13:22:48.390Z,94215.00
2018-07-22T13:25:19.515Z,94227.00
2018-07-22T13:27:51.180Z,94216.00
2018-07-22T13:30:22.689Z,94208.00
2018-07-22T13:32:54.174Z,94191.00
2018-07-22T13:35:25.949Z,94176.00
2018-07-22T13:37:57.558Z,94171.00
2018-07-22T13:40:28.946Z,94167.00
2018-07-22T13:43:00.617Z,94164.00
2018-07-22T13:45:31.984Z,94157.00
2018-07-22T13:48:02.725Z,94154.00
2018-07-22T13:50:34.554Z,94153.00
2018-07-22T13:53:06.193Z,94149.00
2018-07-22T13:55:37.485Z,94150.00
2018-07-22T13:58:09.245Z,94149.00
2018-07-22T14:00:41.005Z,94152.00
2018-07-22T14:03:13.210Z,94152.00
2018-07-22T14:05:45.992Z,94148.00
2018-07-22T14:08:17.564Z,94131.00
2018-07-22T14:10:49.112Z,94129.00
2018-07-22T14:13:21.890Z,94121.00
2018-07-22T14:15:54.254Z,94124.00
2018-07-22T14:18:34.460Z,94121.00
2018-07-22T14:21:05.848Z,94116.00
2018-07-22T14:23:37.274Z,94115.00
2018-07-22T14:26:08.469Z,94113.00
2018-07-22T14:28:39.620Z,94111.00
2018-07-22T14:31:11.906Z,94107.00
2018-07-22T14:33:42.970Z,94107.00
2018-07-22T14:36:14.240Z,94103.00
2018-07-22T14:38:45.466Z,94100.00
2018-07-22T14:41:16.668Z,94095.00
2018-07-22T14:43:48.056Z,94101.00
2018-07-22T14:46:19.240Z,94100.00
2018-07-22T14:48:50.442Z,94103.00
2018-07-22T14:51:22.886Z,94100.00
2018-07-22T14:53:54.058Z,94101.00
2018-07-22T14:56:25.262Z,94101.00
2018-07-22T14:58:56.367Z,94097.00
2018-07-22T15:01:28.520Z,94100.00
2018-07-22T15:03:59.772Z,94103.00
2018-07-22T15:06:31.413Z,94098.00
2018-07-22T15:09:04.336Z,94094.00
2018-07-22T15:11:35.623Z,94097.00
2018-07-22T15:14:06.931Z,94098.00
2018-07-22T15:16:38.290Z,94094.00
2018-07-22T15:19:09.562Z,94096.00
2018-07-22T15:21:41.042Z,94094.00
2018-07-22T15:24:12.390Z,94089.00
2018-07-22T15:26:43.774Z,94096.00
2018-07-22T15:29:15.192Z,94095.00
2018-07-22T15:31:47.051Z,94091.00
2018-07-22T15:34:18.614Z,94091.00
2018-07-22T15:36:50.077Z,94083.00
2018-07-22T15:39:22.286Z,94090.00
2018-07-22T15:41:55.920Z,94086.00
2018-07-22T15:44:27.511Z,94081.00
2018-07-22T15:46:58.789Z,94088.00
2018-07-22T15:49:30.168Z,94091.00
2018-07-22T15:52:03.045Z,94088.00
2018-07-22T15:54:34.996Z,94090.00
2018-07-22T15:57:07.604Z,94089.00
2018-07-22T15:59:39.201Z,94086.00
2018-07-22T16:02:10.681Z,94081.00
2018-07-22T16:04:42.215Z,94085.00
2018-07-22T16:07:14.039Z,94086.00
2018-07-22T16:09:47.743Z,94084.00
2018-07-22T16:12:19.916Z,94090.00
2018-07-22T16:14:51.702Z,94091.00
2018-07-22T16:17:23.567Z,94093.00
2018-07-22T16:19:55.452Z,94089.00
2018-07-22T16:22:26.708Z,94088.00
2018-07-22T16:24:58.300Z,94092.00
2018-07-22T16:27:29.785Z,94083.00
2018-07-22T16:30:01.279Z,94091.00
2018-07-22T16:32:34.459Z,94093.00
2018-07-22T16:35:06.307Z,94096.00
2018-07-22T16:37:37.737Z,94099.00
2018-07-22T16:40:09.297Z,94098.00
2018-07-22T16:42:41.157Z,94094.00
2018-07-22T16:45:14.205Z,94094.00
2018-07-22T16:47:58.244Z,94093.00
2018-07-22T16:50:29.607Z,94107.00
2018-07-22T16:53:01.056Z,94107.00
2018-07-22T16:55:31.740Z,94101.00
2018-07-22T16:58:03.042Z,94101.00
2018-07-22T17:00:34.581Z,94110.00
2018-07-22T17:03:05.557Z,94106.00
2018-07-22T17:05:37.016Z,94099.00
2018-07-22T17:08:08.177Z,94101.00
2018-07-22T17:10:39.513Z,94105.00
2018-07-22T17:13:11.040Z,94107.00
2018-07-22T17:15:42.346Z,94103.00
2018-07-22T17:18:13.844Z,94107.00
2018-07-22T17:20:45.107Z,94116.00
2018-07-22T17:23:16.830Z,94118.00
2018-07-22T17:25:48.043Z,94120.00
2018-07-22T17:28:19.656Z,94115.00
2018-07-22T17:30:50.859Z,94114.00
2018-07-22T17:33:22.582Z,94115.00
2018-07-22T17:35:54.308Z,94115.00
2018-07-22T17:38:25.670Z,94124.00
2018-07-22T17:40:57.058Z,94130.00
2018-07-22T17:43:28.273Z,94130.00
2018-07-22T17:45:59.723Z,94126.00
2018-07-22T17:48:31.163Z,94135.00
2018-07-22T17:51:02.818Z,94132.00
2018-07-22T17:53:34.385Z,94130.00
2018-07-22T17:56:05.943Z,94132.00
2018-07-22T17:58:37.377Z,94127.00
2018-07-22T18:01:08.783Z,94131.00
2018-07-22T18:03:40.044Z,94126.00
2018-07-22T18:06:11.423Z,94124.00
2018-07-22T18:08:42.836Z,94124.00
2018-07-22T18:11:14.365Z,94130.00
2018-07-22T18:13:45.534Z,94130.00
2018-07-22T18:16:16.676Z,94141.00
2018-07-22T18:18:48.045Z,94150.00
2018-07-22T18:21:19.661Z,94151.00
2018-07-22T18:23:51.155Z,94154.00
2018-07-22T18:26:22.526Z,94155.00
2018-07-22T18:28:54.302Z,94172.00
2018-07-22T18:31:25.784Z,94167.00
2018-07-22T18:33:57.254Z,94174.00
2018-07-22T18:36:28.724Z,94180.00
2018-07-22T18:39:00.151Z,94188.00
2018-07-22T18:41:32.366Z,94182.00
2018-07-22T18:44:03.986Z,94189.00
2018-07-22T18:46:35.734Z,94191.00
2018-07-22T18:49:07.479Z,94189.00
2018-07-22T18:51:38.955Z,94198.00
2018-07-22T18:54:10.186Z,94198.00
2018-07-22T18:56:41.894Z,94199.00
2018-07-22T18:59:13.354Z,94203.00
2018-07-22T19:01:44.729Z,94211.00
2018-07-22T19:04:16.029Z,94203.00
2018-07-22T19:06:47.236Z,94200.00
2018-07-22T19:09:18.597Z,94196.00
2018-07-22T19:11:50.352Z,94200.00
2018-07-22T19:14:22.185Z,94200.00
2018-07-22T19:16:53.780Z,94203.00
2018-07-22T19:19:25.422Z,94214.00
2018-07-22T19:21:56.582Z,94218.00
2018-07-22T19:24:27.936Z,94218.00
2018-07-22T19:26:59.327Z,94229.00
2018-07-22T19:29:30.598Z,94235.00
2018-07-22T19:32:01.874Z,94233.00
2018-07-22T19:34:32.900Z,94234.00
2018-07-22T19:37:04.321Z,94237.00
2018-07-22T19:39:36.226Z,94240.00
2018-07-22T19:42:06.950Z,94234.00
2018-07-22T19:44:38.222Z,94243.00
2018-07-22T19:47:09.703Z,94245.00
2018-07-22T19:49:54.746Z,94239.00
2018-07-22T19:52:26.178Z,94234.00
2018-07-22T19:54:57.294Z,94228.00
2018-07-22T19:57:28.372Z,94226.00
2018-07-22T19:59:59.589Z,94222.00
2018-07-22T20:02:31.612Z,94224.00
2018-07-22T20:05:02.687Z,94217.00
2018-07-22T20:07:33.971Z,94217.00
2018-07-22T20:10:05.281Z,94205.00
2018-07-22T20:12:36.417Z,94205.00
2018-07-22T20:15:07.821Z,94195.00
2018-07-22T20:17:39.025Z,94199.00
2018-07-22T20:20:12.785Z,94201.00
2018-07-22T20:22:43.900Z,94197.00
2018-07-22T20:25:14.824Z,94212.00
2018-07-22T20:27:46.045Z,94213.00
2018-07-22T20:30:17.185Z,94223.00
2018-07-22T20:32:48.507Z,94225.00
2018-07-22T20:35:19.545Z,94234.00
2018-07-22T20:37:50.534Z,94230.00
2018-07-22T20:40:21.593Z,94228.00
2018-07-22T20:42:52.581Z,94230.00
2018-07-22T20:45:23.736Z,94238.00
2018-07-22T20:47:54.905Z,94248.00
2018-07-22T20:50:25.961Z,94253.00
2018-07-22T20:52:56.931Z,94249.00
2018-07-22T20:55:28.419Z,94248.00
2018-07-22T20:57:59.663Z,94245.00
2018-07-22T21:00:30.612Z,94237.00
2018-07-22T21:03:01.674Z,94241.00
2018-07-22T21:05:32.666Z,94244.00
2018-07-22T21:08:03.771Z,94248.00
2018-07-22T21:10:34.709Z,94242.00
2018-07-22T21:13:21.173Z,94257.00
2018-07-22T21:15:52.208Z,94251.00
2018-07-22T21:18:22.953Z,94257.00
2018-07-22T21:20:54.003Z,94266.00
2018-07-22T21:23:25.087Z,94276.00
2018-07-22T21:25:56.304Z,94291.00
2018-07-22T21:28:27.630Z,94302.00
2018-07-22T21:30:58.995Z,94299.00
2018-07-22T21:33:29.968Z,94298.00
2018-07-22T21:36:00.964Z,94289.00
2018-07-22T21:38:31.866Z,94289.00
2018-07-22T21:41:02.875Z,94292.00
2018-07-22T21:43:33.848Z,94288.00
2018-07-22T21:46:04.742Z,94286.00
2018-07-22T21:48:35.943Z,94280.00
2018-07-22T21:51:07.336Z,94277.00
2018-07-22T21:53:38.454Z,94272.00
2018-07-22T21:56:09.518Z,94270.00
2018-07-22T21:58:40.581Z,94268.00
2018-07-22T22:01:11.752Z,94271.00
2018-07-22T22:03:42.822Z,94273.00
2018-07-22T22:06:13.937Z,94272.00
2018-07-22T22:08:45.024Z,94273.00
2018-07-22T22:11:16.303Z,94278.00
2018-07-22T22:13:47.394Z,94289.00
2018-07-22T22:16:18.613Z,94295.00
2018-07-22T22:18:49.804Z,94294.00
2018-07-22T22:21:21.207Z,94303.00
2018-07-22T22:23:52.487Z,94310.00
2018-07-22T22:26:23.603Z,94310.00
2018-07-22T22:28:54.821Z,94309.00
2018-07-22T22:31:26.001Z,94304.00
2018-07-22T22:33:57.228Z,94306.00
2018-07-22T22:36:28.391Z,94308.00
2018-07-22T22:38:59.558Z,94307.00
2018-07-22T22:41:30.777Z,94314.00
2018-07-22T22:44:02.077Z,94296.00
2018-07-22T22:46:33.262Z,94287.00
2018-07-22T22:49:04.490Z,94287.00
2018-07-22T22:51:35.563Z,94279.00
2018-07-22T22:54:06.614Z,94284.00
2018-07-22T22:56:37.716Z,94289.00
2018-07-22T22:59:23.731Z,94289.00
2018-07-22T23:01:54.789Z,94289.00
2018-07-22T23:04:25.868Z,94284.00
2018-07-22T23:06:56.845Z,94282.00
2018-07-22T23:09:27.681Z,94281.00
2018-07-22T23:11:58.482Z,94277.00
2018-07-22T23:14:28.847Z,94276.00
2018-07-22T23:17:00.740Z,94275.00
2018-07-22T23:19:31.592Z,94273.00
2018-07-22T23:22:02.288Z,94269.00
2018-07-22T23:24:33.236Z,94263.00
2018-07-22T23:27:04.235Z,94263.00
2018-07-22T23:29:35.117Z,94266.00
2018-07-22T23:32:06.138Z,94270.00
2018-07-22T23:34:37.072Z,94265.00
2018-07-22T23:37:08.009Z,94264.00
2018-07-22T23:39:39.381Z,94267.00
2018-07-22T23:42:10.363Z,94271.00
2018-07-22T23:44:41.646Z,94268.00
2018-07-22T23:47:12.848Z,94268.00
2018-07-22T23:49:43.852Z,94265.00
2018-07-22T23:52:14.698Z,94260.00
2018-07-22T23:54:45.600Z,94254.00
2018-07-22T23:57:16.809Z,94248.00
2018-07-22T23:59:47.751Z,94250.00
